createdAt,value
2018-12-18T00:01:06.689Z,91.64
2018-12-18T00:03:39.282Z,91.19
2018-12-18T00:06:04.271Z,91.59
2018-12-18T00:08:33.071Z,90.98
2018-12-18T00:11:04.152Z,91.28
2018-12-18T00:13:32.935Z,91.14
2018-12-18T00:16:01.732Z,90.87
2018-12-18T00:18:30.559Z,91.31
2018-12-18T00:20:59.340Z,90.94
2018-12-18T00:23:28.192Z,91.72
2018-12-18T00:25:56.979Z,90.90
2018-12-18T00:28:25.772Z,90.83
2018-12-18T00:30:54.598Z,91.04
2018-12-18T00:33:24.402Z,91.07
2018-12-18T00:35:54.401Z,91.15
2018-12-18T00:38:23.214Z,91.03
2018-12-18T00:40:52.038Z,90.92
2018-12-18T00:43:20.820Z,91.62
2018-12-18T00:45:49.620Z,91.37
2018-12-18T00:48:18.403Z,91.24
2018-12-18T00:50:47.207Z,91.33
2018-12-18T00:53:15.999Z,91.17
2018-12-18T00:55:44.778Z,91.12
2018-12-18T00:58:13.653Z,91.59
2018-12-18T01:00:42.448Z,91.37
2018-12-18T01:03:11.327Z,91.41
2018-12-18T01:05:40.099Z,91.20
2018-12-18T01:08:08.875Z,91.45
2018-12-18T01:10:37.657Z,91.34
2018-12-18T01:13:06.462Z,91.65
2018-12-18T01:15:35.247Z,91.28
2018-12-18T01:18:04.039Z,91.09
2018-12-18T01:20:32.832Z,91.47
2018-12-18T01:23:01.626Z,91.69
2018-12-18T01:25:30.428Z,91.74
2018-12-18T01:27:59.219Z,91.00
2018-12-18T01:30:27.995Z,91.11
2018-12-18T01:32:58.985Z,91.01
2018-12-18T01:35:27.816Z,91.38
2018-12-18T01:37:56.609Z,91.12
2018-12-18T01:40:25.395Z,91.39
2018-12-18T01:42:54.186Z,90.81
2018-12-18T01:45:23.026Z,91.26
2018-12-18T01:47:51.861Z,90.88
2018-12-18T01:50:20.642Z,90.96
2018-12-18T01:52:49.473Z,90.99
2018-12-18T01:55:18.267Z,90.88
2018-12-18T01:57:47.060Z,90.84
2018-12-18T02:00:15.855Z,90.75
2018-12-18T02:02:44.658Z,91.33
2018-12-18T02:05:13.503Z,90.58
2018-12-18T02:07:42.314Z,90.73
2018-12-18T02:10:11.131Z,91.30
2018-12-18T02:12:39.924Z,91.02
2018-12-18T02:15:08.703Z,90.75
2018-12-18T02:17:37.982Z,90.87
2018-12-18T02:20:07.999Z,91.16
2018-12-18T02:22:36.799Z,91.30
2018-12-18T02:25:07.420Z,91.07
2018-12-18T02:27:36.206Z,90.73
2018-12-18T02:30:05.921Z,90.58
2018-12-18T02:32:34.704Z,91.04
2018-12-18T02:35:03.552Z,90.53
2018-12-18T02:37:32.352Z,91.17
2018-12-18T02:40:01.141Z,90.74
2018-12-18T02:42:29.911Z,91.00
2018-12-18T02:44:58.685Z,90.49
2018-12-18T02:47:27.467Z,91.15
2018-12-18T02:49:56.255Z,90.79
2018-12-18T02:52:25.137Z,90.69
2018-12-18T02:54:53.916Z,90.37
2018-12-18T02:57:22.755Z,90.83
2018-12-18T02:59:51.539Z,90.35
2018-12-18T03:02:20.423Z,90.35
2018-12-18T03:04:49.738Z,90.34
2018-12-18T03:07:18.552Z,90.08
2018-12-18T03:09:47.336Z,90.22
2018-12-18T03:12:16.144Z,90.39
2018-12-18T03:14:44.984Z,90.10
2018-12-18T03:17:14.474Z,90.15
2018-12-18T03:19:43.888Z,90.16
2018-12-18T03:22:12.703Z,89.98
2018-12-18T03:24:41.490Z,89.83
2018-12-18T03:27:10.335Z,89.85
2018-12-18T03:29:39.119Z,89.39
2018-12-18T03:32:12.145Z,89.38
2018-12-18T03:34:40.939Z,89.30
2018-12-18T03:37:09.751Z,89.28
2018-12-18T03:39:38.562Z,89.14
2018-12-18T03:42:07.370Z,89.25
2018-12-18T03:44:36.267Z,89.58
2018-12-18T03:47:05.377Z,89.05
2018-12-18T03:49:34.219Z,88.95
2018-12-18T03:52:02.994Z,89.03
2018-12-18T03:54:31.779Z,89.11
2018-12-18T03:57:00.899Z,88.74
2018-12-18T03:59:29.619Z,89.48
2018-12-18T04:01:58.426Z,89.41
2018-12-18T04:04:27.227Z,89.53
2018-12-18T04:06:56.018Z,89.40
2018-12-18T04:09:24.802Z,89.20
2018-12-18T04:11:59.059Z,89.10
2018-12-18T04:14:27.868Z,89.29
2018-12-18T04:16:56.652Z,88.79
2018-12-18T04:19:25.471Z,89.06
2018-12-18T04:21:54.233Z,88.88
2018-12-18T04:24:23.096Z,89.19
2018-12-18T04:26:51.971Z,89.37
2018-12-18T04:29:20.775Z,88.91
2018-12-18T04:31:49.565Z,88.99
2018-12-18T04:34:18.375Z,89.19
2018-12-18T04:36:47.172Z,88.87
2018-12-18T04:39:15.972Z,88.80
2018-12-18T04:41:44.769Z,89.14
2018-12-18T04:44:13.559Z,89.13
2018-12-18T04:46:42.352Z,88.98
2018-12-18T04:49:11.161Z,88.99
2018-12-18T04:51:40.028Z,88.79
2018-12-18T04:54:08.922Z,89.02
2018-12-18T04:56:37.829Z,88.69
2018-12-18T04:59:06.661Z,88.30
2018-12-18T05:01:35.458Z,89.23
2018-12-18T05:04:04.252Z,89.02
2018-12-18T05:06:33.139Z,88.56
2018-12-18T05:09:01.932Z,88.53
2018-12-18T05:11:30.873Z,88.52
2018-12-18T05:13:59.695Z,88.79
2018-12-18T05:16:28.491Z,88.99
2018-12-18T05:18:57.276Z,88.69
2018-12-18T05:21:26.087Z,88.36
2018-12-18T05:23:54.870Z,88.81
2018-12-18T05:26:23.708Z,88.51
2018-12-18T05:28:52.490Z,88.41
2018-12-18T05:31:21.288Z,88.73
2018-12-18T05:33:50.101Z,88.79
2018-12-18T05:36:18.947Z,88.95
2018-12-18T05:38:47.759Z,88.88
2018-12-18T05:41:16.571Z,88.29
2018-12-18T05:43:45.427Z,88.46
2018-12-18T05:46:14.238Z,88.77
2018-12-18T05:48:43.014Z,88.80
2018-12-18T05:51:11.793Z,88.84
2018-12-18T05:53:40.576Z,88.66
2018-12-18T05:56:09.374Z,88.87
2018-12-18T05:58:38.251Z,88.52
2018-12-18T06:01:07.038Z,88.65
2018-12-18T06:03:35.937Z,88.54
2018-12-18T06:06:04.900Z,88.28
2018-12-18T06:08:33.519Z,88.46
2018-12-18T06:11:02.318Z,88.15
2018-12-18T06:13:31.099Z,88.41
2018-12-18T06:15:59.870Z,88.46
2018-12-18T06:18:28.668Z,88.47
2018-12-18T06:20:57.511Z,88.53
2018-12-18T06:23:26.316Z,88.21
2018-12-18T06:25:55.140Z,88.49
2018-12-18T06:28:23.982Z,88.50
2018-12-18T06:30:52.770Z,88.50
2018-12-18T06:33:21.617Z,88.32
2018-12-18T06:35:50.459Z,88.07
2018-12-18T06:38:19.262Z,88.53
2018-12-18T06:40:48.058Z,88.18
2018-12-18T06:43:16.899Z,88.66
2018-12-18T06:45:45.687Z,88.07
2018-12-18T06:48:14.475Z,88.18
2018-12-18T06:50:43.281Z,87.95
2018-12-18T06:53:12.084Z,88.59
2018-12-18T06:55:40.871Z,88.41
2018-12-18T06:58:09.671Z,88.32
2018-12-18T07:00:38.480Z,88.16
2018-12-18T07:03:07.285Z,88.50
2018-12-18T07:05:36.178Z,88.25
2018-12-18T07:08:04.983Z,88.42
2018-12-18T07:10:33.781Z,87.77
2018-12-18T07:13:02.556Z,88.22
2018-12-18T07:15:31.394Z,88.13
2018-12-18T07:18:00.196Z,87.09
2018-12-18T07:20:28.972Z,87.56
2018-12-18T07:22:57.798Z,87.84
2018-12-18T07:25:26.577Z,87.62
2018-12-18T07:27:55.363Z,87.87
2018-12-18T07:30:24.198Z,87.82
2018-12-18T07:32:52.992Z,88.19
2018-12-18T07:35:23.397Z,87.99
2018-12-18T07:37:50.726Z,86.95
2018-12-18T07:40:19.479Z,88.08
2018-12-18T07:42:48.280Z,87.81
2018-12-18T07:45:17.075Z,87.99
2018-12-18T07:47:45.878Z,87.82
2018-12-18T07:50:14.671Z,87.71
2018-12-18T07:52:43.452Z,87.94
2018-12-18T07:55:12.241Z,87.65
2018-12-18T07:57:41.036Z,87.84
2018-12-18T08:00:09.881Z,87.61
2018-12-18T08:02:38.654Z,87.99
2018-12-18T08:05:08.088Z,87.76
2018-12-18T08:07:36.846Z,87.86
2018-12-18T08:10:05.885Z,87.94
2018-12-18T08:12:34.680Z,87.83
2018-12-18T08:15:03.494Z,87.74
2018-12-18T08:17:32.310Z,87.13
2018-12-18T08:20:01.082Z,87.50
2018-12-18T08:22:29.976Z,87.33
2018-12-18T08:24:58.769Z,86.73
2018-12-18T08:27:27.564Z,87.83
2018-12-18T08:29:56.399Z,87.23
2018-12-18T08:32:25.204Z,87.55
2018-12-18T08:34:53.998Z,87.75
2018-12-18T08:37:22.855Z,87.30
2018-12-18T08:39:51.652Z,87.46
2018-12-18T08:42:21.579Z,87.14
2018-12-18T08:44:50.390Z,87.47
2018-12-18T08:47:19.191Z,86.77
2018-12-18T08:49:48.938Z,87.15
2018-12-18T08:52:17.728Z,87.11
2018-12-18T08:54:46.528Z,87.28
2018-12-18T08:57:15.307Z,87.46
2018-12-18T08:59:44.167Z,86.97
2018-12-18T09:02:12.940Z,86.76
2018-12-18T09:04:42.398Z,86.82
2018-12-18T09:07:11.196Z,86.87
2018-12-18T09:09:39.974Z,86.15
2018-12-18T09:12:12.951Z,86.56
2018-12-18T09:14:45.918Z,86.34
2018-12-18T09:17:18.871Z,86.69
2018-12-18T09:19:47.642Z,86.00
2018-12-18T09:22:16.466Z,86.31
2018-12-18T09:24:45.246Z,85.83
2018-12-18T09:27:14.059Z,85.86
2018-12-18T09:29:42.846Z,85.99
2018-12-18T09:32:11.663Z,85.51
2018-12-18T09:34:40.476Z,85.11
2018-12-18T09:37:09.312Z,85.01
2018-12-18T09:39:42.645Z,84.57
2018-12-18T09:42:17.070Z,84.48
2018-12-18T09:44:45.872Z,84.09
2018-12-18T09:47:14.689Z,84.22
2018-12-18T09:49:43.480Z,84.13
2018-12-18T09:52:12.285Z,83.40
2018-12-18T09:54:41.096Z,83.08
2018-12-18T09:57:15.302Z,82.23
2018-12-18T09:59:44.104Z,82.75
2018-12-18T10:02:12.984Z,82.67
2018-12-18T10:04:41.774Z,81.96
2018-12-18T10:07:10.553Z,81.92
2018-12-18T10:09:39.336Z,81.41
2018-12-18T10:12:08.174Z,81.26
2018-12-18T10:14:36.951Z,81.66
2018-12-18T10:17:05.738Z,81.48
2018-12-18T10:19:34.516Z,81.45
2018-12-18T10:22:03.320Z,81.08
2018-12-18T10:24:32.107Z,81.17
2018-12-18T10:27:00.891Z,81.10
2018-12-18T10:29:29.993Z,80.37
2018-12-18T10:31:58.547Z,80.42
2018-12-18T10:34:27.347Z,80.38
2018-12-18T10:36:56.132Z,80.61
2018-12-18T10:39:24.936Z,79.56
2018-12-18T10:41:53.728Z,79.66
2018-12-18T10:44:22.516Z,79.65
2018-12-18T10:46:51.303Z,79.90
2018-12-18T10:49:20.090Z,79.65
2018-12-18T10:51:48.918Z,79.49
2018-12-18T10:54:17.714Z,79.57
2018-12-18T10:56:48.604Z,79.58
2018-12-18T10:59:17.370Z,79.04
2018-12-18T11:01:48.540Z,79.03
2018-12-18T11:04:17.367Z,79.04
2018-12-18T11:06:46.144Z,79.05
2018-12-18T11:09:14.938Z,79.09
2018-12-18T11:11:43.710Z,79.21
2018-12-18T11:14:13.411Z,77.79
2018-12-18T11:16:42.209Z,78.53
2018-12-18T11:19:10.998Z,78.35
2018-12-18T11:21:39.814Z,78.25
2018-12-18T11:24:08.682Z,78.32
2018-12-18T11:26:37.478Z,77.68
2018-12-18T11:29:06.399Z,78.19
2018-12-18T11:31:35.198Z,78.84
2018-12-18T11:34:03.986Z,78.45
2018-12-18T11:36:32.825Z,78.62
2018-12-18T11:39:01.617Z,78.08
2018-12-18T11:41:30.486Z,78.44
2018-12-18T11:43:59.297Z,78.44
2018-12-18T11:46:28.167Z,78.03
2018-12-18T11:48:57.006Z,78.24
2018-12-18T11:51:25.798Z,76.75
2018-12-18T11:53:54.598Z,76.76
2018-12-18T11:56:23.458Z,76.22
2018-12-18T11:58:52.246Z,76.39
2018-12-18T12:01:21.089Z,76.07
2018-12-18T12:03:49.853Z,76.24
2018-12-18T12:06:23.004Z,75.40
2018-12-18T12:08:47.516Z,75.69
2018-12-18T12:11:16.306Z,75.01
2018-12-18T12:13:45.104Z,74.78
2018-12-18T12:16:13.895Z,75.56
2018-12-18T12:18:42.746Z,74.66
2018-12-18T12:21:11.548Z,75.28
2018-12-18T12:23:40.344Z,75.40
2018-12-18T12:26:14.600Z,74.83
2018-12-18T12:28:43.363Z,74.73
2018-12-18T12:31:13.861Z,74.11
2018-12-18T12:33:45.928Z,74.90
2018-12-18T12:36:14.738Z,74.83
2018-12-18T12:38:43.541Z,74.33
2018-12-18T12:41:12.370Z,74.29
2018-12-18T12:43:41.170Z,74.19
2018-12-18T12:46:09.964Z,74.76
2018-12-18T12:48:44.106Z,73.99
2018-12-18T12:51:12.880Z,74.21
2018-12-18T12:53:41.692Z,73.71
2018-12-18T12:56:10.564Z,74.69
2018-12-18T12:58:39.389Z,75.01
2018-12-18T13:01:08.198Z,74.78
2018-12-18T13:03:37.032Z,74.94
2018-12-18T13:06:06.898Z,74.58
2018-12-18T13:08:35.719Z,74.90
2018-12-18T13:11:04.588Z,74.85
2018-12-18T13:13:33.407Z,74.97
2018-12-18T13:16:02.191Z,74.98
2018-12-18T13:18:31.045Z,75.30
2018-12-18T13:20:59.812Z,75.13
2018-12-18T13:23:28.652Z,74.95
2018-12-18T13:25:57.429Z,76.12
2018-12-18T13:28:27.433Z,74.64
2018-12-18T13:30:56.993Z,75.12
2018-12-18T13:33:26.662Z,76.00
2018-12-18T13:35:55.498Z,75.84
2018-12-18T13:38:24.309Z,76.43
2018-12-18T13:40:53.094Z,76.12
2018-12-18T13:43:21.928Z,76.91
2018-12-18T13:45:50.715Z,76.52
2018-12-18T13:48:19.512Z,76.20
2018-12-18T13:50:48.867Z,76.01
2018-12-18T13:53:18.068Z,76.47
2018-12-18T13:55:46.897Z,76.44
2018-12-18T13:58:15.685Z,76.67
2018-12-18T14:00:44.594Z,76.53
2018-12-18T14:03:13.404Z,76.57
2018-12-18T14:05:42.185Z,76.91
2018-12-18T14:08:10.998Z,77.42
2018-12-18T14:10:40.933Z,77.64
2018-12-18T14:13:09.746Z,77.55
2018-12-18T14:15:38.510Z,77.50
2018-12-18T14:18:07.303Z,77.75
2018-12-18T14:20:36.184Z,78.17
2018-12-18T14:23:04.954Z,77.78
2018-12-18T14:25:33.759Z,77.87
2018-12-18T14:28:02.548Z,78.79
2018-12-18T14:30:31.392Z,78.76
2018-12-18T14:33:00.206Z,79.13
2018-12-18T14:35:28.991Z,78.97
2018-12-18T14:37:57.853Z,78.94
2018-12-18T14:40:26.673Z,79.54
2018-12-18T14:42:55.463Z,79.67
2018-12-18T14:45:24.256Z,79.76
2018-12-18T14:47:53.053Z,80.24
2018-12-18T14:50:21.918Z,80.42
2018-12-18T14:52:50.812Z,80.59
2018-12-18T14:55:20.583Z,80.44
2018-12-18T14:57:49.368Z,80.93
2018-12-18T15:00:18.180Z,80.70
2018-12-18T15:02:47.009Z,81.35
2018-12-18T15:05:15.786Z,81.19
2018-12-18T15:07:51.331Z,81.54
2018-12-18T15:10:20.140Z,81.49
2018-12-18T15:12:50.205Z,81.87
2018-12-18T15:15:19.250Z,81.89
2018-12-18T15:17:48.037Z,81.73
2018-12-18T15:20:16.849Z,82.29
2018-12-18T15:22:45.642Z,82.23
2018-12-18T15:25:14.436Z,82.42
2018-12-18T15:27:43.227Z,81.82
2018-12-18T15:30:12.051Z,82.14
2018-12-18T15:32:40.836Z,82.96
2018-12-18T15:35:09.617Z,83.04
2018-12-18T15:37:38.403Z,83.04
2018-12-18T15:40:07.210Z,82.90
2018-12-18T15:42:35.997Z,82.75
2018-12-18T15:45:04.847Z,83.08
2018-12-18T15:47:33.638Z,83.20
2018-12-18T15:50:02.532Z,83.70
2018-12-18T15:52:31.346Z,83.50
2018-12-18T15:55:00.086Z,83.30
2018-12-18T15:57:28.893Z,83.99
2018-12-18T15:59:57.680Z,84.13
2018-12-18T16:02:26.484Z,83.96
2018-12-18T16:04:55.269Z,83.82
2018-12-18T16:07:24.059Z,83.37
2018-12-18T16:09:52.843Z,84.00
2018-12-18T16:12:21.679Z,83.87
2018-12-18T16:14:50.503Z,83.63
2018-12-18T16:17:19.368Z,84.11
2018-12-18T16:19:48.286Z,84.10
2018-12-18T16:22:17.150Z,84.43
2018-12-18T16:24:46.064Z,83.80
2018-12-18T16:27:14.911Z,84.28
2018-12-18T16:29:43.679Z,83.93
2018-12-18T16:32:12.518Z,83.96
2018-12-18T16:34:41.309Z,83.72
2018-12-18T16:37:10.907Z,84.14
2018-12-18T16:39:39.719Z,83.68
2018-12-18T16:42:08.524Z,84.13
2018-12-18T16:44:37.311Z,84.37
2018-12-18T16:47:06.143Z,83.89
2018-12-18T16:49:34.958Z,83.85
2018-12-18T16:52:04.396Z,84.24
2018-12-18T16:54:33.208Z,84.44
2018-12-18T16:57:03.267Z,84.11
2018-12-18T16:59:32.094Z,84.75
2018-12-18T17:02:00.910Z,84.49
2018-12-18T17:04:34.193Z,83.77
2018-12-18T17:07:02.984Z,84.24
2018-12-18T17:09:31.789Z,84.63
2018-12-18T17:12:00.580Z,84.38
2018-12-18T17:14:30.032Z,84.38
2018-12-18T17:17:00.228Z,84.29
2018-12-18T17:19:29.898Z,84.03
2018-12-18T17:21:58.800Z,83.83
2018-12-18T17:24:27.631Z,84.34
2018-12-18T17:26:56.424Z,84.18
2018-12-18T17:29:25.225Z,83.67
2018-12-18T17:31:54.014Z,83.92
2018-12-18T17:34:22.839Z,84.02
2018-12-18T17:36:52.591Z,84.00
2018-12-18T17:39:21.399Z,83.44
2018-12-18T17:41:50.180Z,84.12
2018-12-18T17:44:18.979Z,83.61
2018-12-18T17:46:47.767Z,83.34
2018-12-18T17:49:16.559Z,83.13
2018-12-18T17:51:45.392Z,83.49
2018-12-18T17:54:14.167Z,83.24
2018-12-18T17:56:42.968Z,83.09
2018-12-18T17:59:11.767Z,83.42
2018-12-18T18:01:40.575Z,82.88
2018-12-18T18:04:09.345Z,83.56
2018-12-18T18:06:38.149Z,83.53
2018-12-18T18:09:08.839Z,82.84
2018-12-18T18:11:37.738Z,82.97
2018-12-18T18:14:06.507Z,82.65
2018-12-18T18:16:35.392Z,82.66
2018-12-18T18:19:04.187Z,82.86
2018-12-18T18:21:33.027Z,82.23
2018-12-18T18:24:01.824Z,82.62
2018-12-18T18:26:30.619Z,82.39
2018-12-18T18:28:59.468Z,82.57
2018-12-18T18:31:28.335Z,82.46
2018-12-18T18:33:57.146Z,82.72
2018-12-18T18:36:25.930Z,83.08
2018-12-18T18:38:54.712Z,82.45
2018-12-18T18:41:23.514Z,82.72
2018-12-18T18:43:52.414Z,82.63
2018-12-18T18:46:21.183Z,82.54
2018-12-18T18:48:49.960Z,82.29
2018-12-18T18:51:18.735Z,82.33
2018-12-18T18:53:47.540Z,82.52
2018-12-18T18:56:16.352Z,82.70
2018-12-18T18:58:45.141Z,82.23
2018-12-18T19:01:15.156Z,82.20
2018-12-18T19:03:43.998Z,82.35
2018-12-18T19:06:12.787Z,82.32
2018-12-18T19:08:41.582Z,82.31
2018-12-18T19:11:10.373Z,82.04
2018-12-18T19:13:40.529Z,81.89
2018-12-18T19:16:08.007Z,82.50
2018-12-18T19:18:36.953Z,81.94
2018-12-18T19:21:05.760Z,82.69
2018-12-18T19:23:34.543Z,82.46
2018-12-18T19:26:03.351Z,82.26
2018-12-18T19:28:32.212Z,81.56
2018-12-18T19:31:01.015Z,82.15
2018-12-18T19:33:29.945Z,81.50
2018-12-18T19:35:58.730Z,82.38
2018-12-18T19:38:27.591Z,82.31
2018-12-18T19:40:56.365Z,81.57
2018-12-18T19:43:25.264Z,81.68
2018-12-18T19:45:54.038Z,81.81
2018-12-18T19:48:22.928Z,81.90
2018-12-18T19:50:51.733Z,81.90
2018-12-18T19:53:20.551Z,81.56
2018-12-18T19:55:49.479Z,81.47
2018-12-18T19:58:18.288Z,81.27
2018-12-18T20:00:47.086Z,81.73
2018-12-18T20:03:15.878Z,81.40
2018-12-18T20:05:44.703Z,81.63
2018-12-18T20:08:13.533Z,81.49
2018-12-18T20:10:42.345Z,81.21
2018-12-18T20:13:11.143Z,81.48
2018-12-18T20:15:39.941Z,81.05
2018-12-18T20:18:08.734Z,80.78
2018-12-18T20:20:37.580Z,81.53
2018-12-18T20:23:06.372Z,80.98
2018-12-18T20:25:35.155Z,80.95
2018-12-18T20:28:03.947Z,81.60
2018-12-18T20:30:32.831Z,80.87
2018-12-18T20:33:01.616Z,80.91
2018-12-18T20:35:30.404Z,80.87
2018-12-18T20:37:59.275Z,81.37
2018-12-18T20:40:28.114Z,80.48
2018-12-18T20:42:56.903Z,80.82
2018-12-18T20:45:25.687Z,81.24
2018-12-18T20:47:54.587Z,81.21
2018-12-18T20:50:23.427Z,80.99
2018-12-18T20:52:52.226Z,80.72
2018-12-18T20:55:21.103Z,81.44
2018-12-18T20:57:49.859Z,81.55
2018-12-18T21:00:18.696Z,81.17
2018-12-18T21:02:47.482Z,80.58
2018-12-18T21:05:16.269Z,81.16
2018-12-18T21:07:45.059Z,80.62
2018-12-18T21:10:13.856Z,80.34
2018-12-18T21:12:42.758Z,80.86
2018-12-18T21:15:11.516Z,80.35
2018-12-18T21:17:40.293Z,80.52
2018-12-18T21:20:09.127Z,79.86
2018-12-18T21:22:37.979Z,80.49
2018-12-18T21:25:07.577Z,79.80
2018-12-18T21:27:36.364Z,80.10
2018-12-18T21:30:05.954Z,79.69
2018-12-18T21:32:34.738Z,79.77
2018-12-18T21:35:03.752Z,80.16
2018-12-18T21:37:32.562Z,79.58
2018-12-18T21:40:01.359Z,78.96
2018-12-18T21:42:30.146Z,79.88
2018-12-18T21:44:58.950Z,79.45
2018-12-18T21:47:27.728Z,79.93
2018-12-18T21:49:56.515Z,79.64
2018-12-18T21:52:25.306Z,79.89
2018-12-18T21:54:54.083Z,79.76
2018-12-18T21:57:22.915Z,79.59
2018-12-18T21:59:51.720Z,79.45
2018-12-18T22:02:20.666Z,79.09
2018-12-18T22:04:49.456Z,79.26
2018-12-18T22:07:18.241Z,78.71
2018-12-18T22:09:47.047Z,79.51
2018-12-18T22:12:15.848Z,78.57
2018-12-18T22:14:44.688Z,78.93
2018-12-18T22:17:13.473Z,79.14
2018-12-18T22:19:42.268Z,78.58
2018-12-18T22:22:11.058Z,78.73
2018-12-18T22:24:39.838Z,79.04
2018-12-18T22:27:08.648Z,78.85
2018-12-18T22:29:37.428Z,78.43
2018-12-18T22:32:06.238Z,78.56
2018-12-18T22:34:35.930Z,78.62
2018-12-18T22:37:04.718Z,78.49
2018-12-18T22:39:33.482Z,78.87
2018-12-18T22:42:02.267Z,78.84
2018-12-18T22:44:31.078Z,78.98
2018-12-18T22:46:59.870Z,78.30
2018-12-18T22:49:28.677Z,78.36
2018-12-18T22:51:57.472Z,78.89
2018-12-18T22:54:26.256Z,78.85
2018-12-18T22:56:55.046Z,78.36
2018-12-18T22:59:23.892Z,78.30
2018-12-18T23:01:52.717Z,78.15
2018-12-18T23:04:21.510Z,77.68
2018-12-18T23:06:50.564Z,77.96
2018-12-18T23:09:20.303Z,77.94
2018-12-18T23:11:49.086Z,78.07
2018-12-18T23:14:17.879Z,77.87
2018-12-18T23:16:47.651Z,78.24
2018-12-18T23:19:16.461Z,77.23
2018-12-18T23:21:45.324Z,78.31
2018-12-18T23:24:14.220Z,77.72
2018-12-18T23:26:43.032Z,77.48
2018-12-18T23:29:11.834Z,77.51
2018-12-18T23:31:41.097Z,77.65
2018-12-18T23:34:09.935Z,77.42
2018-12-18T23:36:38.887Z,77.66
2018-12-18T23:39:08.521Z,78.09
2018-12-18T23:41:37.317Z,77.66
2018-12-18T23:44:06.093Z,77.52
2018-12-18T23:46:34.933Z,77.31
2018-12-18T23:49:03.739Z,76.91
2018-12-18T23:51:32.609Z,77.69
2018-12-18T23:54:02.208Z,77.68
2018-12-18T23:56:31.068Z,77.73
2018-12-18T23:59:00.783Z,77.76
